Time;durP1;ratioP1;P1;durP2;ratioP2;P2;SDS_P1;SDS_P2;PMS_P1;PMS_P2;Temp;Humidity;BMP_temperature;BMP_pressure;BME280_temperature;BME280_humidity;BME280_pressure;Samples;Min_cycle;Max_cycle;Signal;HPM_P1;HPM_P2
2021/05/11 00:00:49;;;;;;;6.25;3.52;;;;;;;3.64;73.22;100822.47;1787224;80;21220;-76
2021/05/11 00:03:17;;;;;;;4.62;3.40;;;;;;;3.62;73.25;100817.25;1786768;80;21193;-77
2021/05/11 00:05:46;;;;;;;8.30;3.27;;;;;;;3.64;73.27;100809.45;1787030;80;21131;-79
2021/05/11 00:08:14;;;;;;;7.95;3.60;;;;;;;3.64;72.79;100819.86;1786462;80;21114;-75
2021/05/11 00:10:43;;;;;;;6.42;4.20;;;;;;;3.62;72.27;100821.59;1774362;80;22279;-75
2021/05/11 00:13:12;;;;;;;7.22;3.75;;;;;;;3.60;72.01;100815.06;1743670;81;22131;-73
2021/05/11 00:15:42;;;;;;;4.30;3.58;;;;;;;3.53;71.51;100808.97;1741482;81;21192;-74
2021/05/11 00:18:11;;;;;;;5.42;3.87;;;;;;;3.52;71.65;100811.55;1749470;80;21195;-78
2021/05/11 00:20:39;;;;;;;7.00;3.77;;;;;;;3.49;72.00;100816.33;1753560;80;21188;-75
2021/05/11 00:23:07;;;;;;;5.58;3.80;;;;;;;3.48;72.26;100809.39;1750758;80;21180;-76
2021/05/11 00:25:35;;;;;;;7.40;3.90;;;;;;;3.48;72.72;100810.70;1751387;80;21269;-79
2021/05/11 00:28:04;;;;;;;5.78;3.35;;;;;;;3.47;72.59;100810.24;1751278;80;21276;-78
2021/05/11 00:30:32;;;;;;;6.35;3.35;;;;;;;3.47;72.82;100808.94;1750477;80;21727;-77
2021/05/11 00:33:01;;;;;;;7.85;3.58;;;;;;;3.48;72.40;100800.28;1750340;80;21228;-77
2021/05/11 00:35:30;;;;;;;6.12;3.27;;;;;;;3.46;72.02;100803.31;1750538;81;21181;-78
2021/05/11 00:37:58;;;;;;;7.42;3.35;;;;;;;3.46;71.80;100799.41;1750184;80;21423;-77
2021/05/11 00:40:27;;;;;;;8.38;4.28;;;;;;;3.43;71.88;100792.00;1750219;80;21219;-76
2021/05/11 00:42:55;;;;;;;5.17;3.37;;;;;;;3.42;72.46;100781.16;1749935;80;21204;-75
2021/05/11 00:45:24;;;;;;;6.05;3.60;;;;;;;3.43;73.78;100779.87;1754737;81;21206;-76
2021/05/11 00:47:52;;;;;;;9.68;3.65;;;;;;;3.43;73.43;100777.27;1761234;81;21182;-76
2021/05/11 00:50:22;;;;;;;4.92;3.47;;;;;;;3.45;73.49;100774.66;1761468;81;21226;-76
2021/05/11 00:52:51;;;;;;;6.72;3.60;;;;;;;3.45;72.64;100774.66;1761292;81;21238;-77
2021/05/11 00:55:19;;;;;;;4.60;3.08;;;;;;;3.44;72.04;100778.14;1761231;81;21162;-75
2021/05/11 00:57:48;;;;;;;5.12;3.55;;;;;;;3.43;71.35;100781.18;1761127;81;21218;-77
2021/05/11 01:00:18;;;;;;;5.80;3.70;;;;;;;3.42;71.05;100775.95;1761238;81;21203;-75
2021/05/11 01:02:46;;;;;;;7.90;3.90;;;;;;;3.43;71.03;100777.27;1754295;80;22204;-77
2021/05/11 01:05:15;;;;;;;6.62;4.00;;;;;;;3.43;71.63;100773.77;1750070;80;21213;-78
2021/05/11 01:07:48;;;;;;;6.85;3.80;;;;;;;3.41;72.08;100776.84;1750092;81;21185;-79
2021/05/11 01:10:16;;;;;;;5.37;3.80;;;;;;;3.38;72.37;100776.36;1750218;81;21136;-76
2021/05/11 01:15:46;;;;;;;10.67;3.67;;;;;;;3.35;73.07;100776.37;1872211;76;22841;-78
2021/05/11 01:18:17;;;;;;;8.18;3.85;;;;;;;3.29;73.09;100782.84;1816556;78;21214;-78
2021/05/11 01:20:48;;;;;;;7.33;3.47;;;;;;;3.28;72.69;100772.02;1827929;78;21206;-75
2021/05/11 01:26:07;;;;;;;4.78;3.52;;;;;;;3.25;72.30;100777.22;1808203;79;21163;-75
2021/05/11 01:31:48;;;;;;;5.17;3.67;;;;;;;3.32;72.87;100784.19;1804764;79;25286;-75
2021/05/11 01:48:02;;;;;;;8.28;3.47;;;;;;;3.21;72.30;100775.47;1745021;82;21192;-73
2021/05/11 01:50:31;;;;;;;7.03;3.47;;;;;;;3.21;72.63;100780.67;1744237;82;21258;-73
2021/05/11 01:53:11;;;;;;;7.50;3.30;;;;;;;3.24;73.55;100775.46;1744605;82;21183;-73
2021/05/11 02:23:07;;;;;;;6.85;3.65;;;;;;;3.52;73.42;100761.67;1745061;82;21235;-76
2021/05/11 02:25:34;;;;;;;6.70;3.80;;;;;;;3.53;73.40;100766.00;1744988;82;21179;-76
2021/05/11 02:28:02;;;;;;;6.45;3.72;;;;;;;3.54;73.42;100759.05;1744949;82;21179;-76
2021/05/11 02:30:31;;;;;;;6.00;3.30;;;;;;;3.54;73.55;100765.15;1734715;81;21414;-75
2021/05/11 02:32:59;;;;;;;6.55;3.42;;;;;;;3.57;73.64;100768.19;1725125;83;21238;-76
2021/05/11 02:35:27;;;;;;;6.80;3.62;;;;;;;3.60;73.60;100760.81;1725481;83;21665;-78
2021/05/11 02:37:56;;;;;;;8.10;4.10;;;;;;;3.62;73.83;100757.78;1725163;83;21238;-76
2021/05/11 02:40:24;;;;;;;8.33;4.00;;;;;;;3.66;73.74;100754.28;1725203;83;21618;-75
2021/05/11 02:43:31;;;;;;;8.55;3.90;;;;;;;3.69;73.32;100758.22;1724666;83;21381;-74
2021/05/11 02:45:31;;;;;;;7.78;3.80;;;;;;;3.73;73.49;100758.66;1716723;83;21198;-76
2021/05/11 02:48:00;;;;;;;6.75;3.83;;;;;;;3.76;73.51;100757.35;1722804;83;21199;-76
2021/05/11 02:50:30;;;;;;;6.83;3.92;;;;;;;3.83;73.18;100757.79;1722323;83;21192;-75
2021/05/11 02:52:58;;;;;;;;;;;;;;;3.85;73.24;100752.59;1724977;83;21428;-74
2021/05/11 02:55:27;;;;;;;4.83;3.42;;;;;;;3.88;72.96;100748.67;1722334;83;22304;-76
2021/05/11 02:57:55;;;;;;;8.15;3.55;;;;;;;3.91;72.79;100752.16;1722009;83;21258;-74
2021/05/11 03:00:26;;;;;;;5.22;3.15;;;;;;;3.96;72.66;100749.11;1718560;83;21154;-75
2021/05/11 03:02:55;;;;;;;6.97;3.47;;;;;;;4.06;72.12;100749.11;1698389;83;21198;-78
2021/05/11 03:05:23;;;;;;;6.12;4.05;;;;;;;4.17;72.74;100749.97;1698289;84;21250;-75
2021/05/11 03:07:52;;;;;;;5.37;3.83;;;;;;;4.30;72.33;100746.49;1701706;78;21444;-75
2021/05/11 03:10:20;;;;;;;6.00;3.75;;;;;;;4.45;72.67;100748.63;1702710;78;21163;-76
2021/05/11 03:12:49;;;;;;;4.85;3.37;;;;;;;4.59;72.31;100751.63;1700264;81;21202;-76
2021/05/11 03:15:18;;;;;;;6.20;3.58;;;;;;;4.74;71.86;100746.81;1697594;84;21183;-77
2021/05/11 03:17:46;;;;;;;4.83;3.70;;;;;;;4.93;71.75;100751.97;1697475;83;21187;-76
2021/05/11 03:20:16;;;;;;;4.87;3.60;;;;;;;5.11;71.75;100750.58;1697374;83;21365;-75
2021/05/11 03:22:44;;;;;;;5.05;3.17;;;;;;;5.34;71.77;100745.23;1698536;84;21127;-76
2021/05/11 03:25:13;;;;;;;5.70;3.30;;;;;;;5.66;71.02;100741.56;1691698;83;21180;-78
2021/05/11 03:27:41;;;;;;;6.67;3.12;;;;;;;6.20;69.78;100741.14;1705645;82;21139;-75
2021/05/11 03:30:12;;;;;;;8.35;3.58;;;;;;;7.00;68.13;100740.28;1702951;82;21195;-77
2021/05/11 03:32:40;;;;;;;5.33;3.17;;;;;;;7.80;64.87;100746.99;1725254;83;21441;-77
2021/05/11 03:35:13;;;;;;;5.62;3.30;;;;;;;8.49;63.11;100738.86;1725185;82;21218;-78
2021/05/11 03:37:42;;;;;;;6.08;3.80;;;;;;;9.14;61.28;100742.37;1725078;83;21159;-77
2021/05/11 03:40:10;;;;;;;5.03;3.70;;;;;;;9.82;58.99;100736.45;1724969;83;21227;-75
2021/05/11 03:42:48;;;;;;;6.90;3.92;;;;;;;10.48;57.17;100728.65;1724848;82;21195;-76
2021/05/11 03:45:12;;;;;;;7.20;3.30;;;;;;;11.08;54.73;100730.45;1723737;82;22134;-76
2021/05/11 03:47:48;;;;;;;7.22;3.35;;;;;;;11.72;52.63;100730.70;1879124;74;28688;-78
2021/05/11 03:50:30;;;;;;;10.58;3.20;;;;;;;12.28;50.80;100730.61;1870611;76;28634;-78
2021/05/11 03:53:16;;;;;;;13.68;4.83;;;;;;;12.71;50.01;100734.38;1824554;77;21644;-77
2021/05/11 03:55:51;;;;;;;11.45;3.45;;;;;;;13.34;48.49;100731.19;1814682;76;22761;-78
2021/05/11 03:58:27;;;;;;;7.85;2.95;;;;;;;13.85;47.09;100727.41;1841649;76;23448;-77
2021/05/11 04:01:13;;;;;;;9.20;2.98;;;;;;;14.28;46.81;100729.56;1813046;79;21171;-76
2021/05/11 04:03:48;;;;;;;8.60;2.77;;;;;;;14.86;43.46;100732.34;1842185;75;22750;-77
2021/05/11 04:06:30;;;;;;;9.03;2.65;;;;;;;15.33;42.08;100726.24;1826877;76;22808;-78
2021/05/11 04:09:32;;;;;;;11.65;2.55;;;;;;;15.72;40.66;100730.98;1779203;79;21282;-78
2021/05/11 04:12:26;;;;;;;8.83;2.72;;;;;;;16.30;40.67;100728.53;1851782;77;22764;-71
2021/05/11 04:17:44;;;;;;;7.53;3.00;;;;;;;17.14;36.28;100729.89;1834890;78;22708;-69
2021/05/11 04:20:30;;;;;;;4.75;2.92;;;;;;;17.44;34.92;100722.92;1777066;79;21613;-69
2021/05/11 04:23:06;;;;;;;7.62;3.90;;;;;;;17.90;32.15;100722.55;1814535;76;22735;-70
2021/05/11 04:25:47;;;;;;;4.95;3.00;;;;;;;18.12;32.14;100716.80;1806491;78;22668;-70
2021/05/11 04:28:33;;;;;;;6.12;2.72;;;;;;;18.31;31.52;100719.70;1743966;80;21201;-69
2021/05/11 04:31:17;;;;;;;3.80;2.50;;;;;;;18.77;30.72;100712.92;1886853;76;23099;-68
2021/05/11 04:33:56;;;;;;;4.53;2.45;;;;;;;19.08;30.05;100712.73;1846281;76;22948;-70
2021/05/11 04:36:36;;;;;;;3.67;2.33;;;;;;;19.45;28.86;100705.02;1835436;76;22803;-70
2021/05/11 04:39:23;;;;;;;7.97;2.50;;;;;;;19.70;28.49;100704.31;1785606;78;21241;-68
2021/05/11 04:41:58;;;;;;;5.28;2.25;;;;;;;20.04;27.82;100697.20;1818969;76;23325;-70
2021/05/11 04:44:40;;;;;;;4.10;2.12;;;;;;;20.14;27.33;100696.95;1811020;76;22787;-71
2021/05/11 04:47:19;;;;;;;6.12;2.45;;;;;;;20.35;26.92;100694.61;1792857;78;27804;-70
2021/05/11 04:50:05;;;;;;;15.58;2.45;;;;;;;20.64;26.64;100695.30;1774935;79;21167;-70
2021/05/11 04:52:41;;;;;;;10.38;2.58;;;;;;;20.95;25.36;100693.12;1842390;76;22747;-71
2021/05/11 04:55:22;;;;;;;3.30;2.30;;;;;;;21.10;24.59;100689.34;1733350;79;23423;-70
2021/05/11 04:58:08;;;;;;;2.77;1.95;;;;;;;21.22;25.25;100688.09;1718504;82;21135;-70
2021/05/11 05:00:43;;;;;;;5.60;2.45;;;;;;;21.55;24.69;100680.75;1867539;75;22746;-68
2021/05/11 05:03:25;;;;;;;4.78;2.10;;;;;;;21.76;25.79;100671.13;1851166;76;22691;-68
2021/05/11 05:06:02;;;;;;;5.45;2.37;;;;;;;21.99;22.88;100667.16;1811486;76;22789;-68
2021/05/11 05:08:43;;;;;;;5.47;2.30;;;;;;;21.96;22.70;100668.25;1811498;78;22862;-71
2021/05/11 05:11:18;;;;;;;6.58;2.37;;;;;;;22.07;23.23;100667.94;1840096;76;22717;-67
2021/05/11 05:13:54;;;;;;;4.35;2.58;;;;;;;22.22;23.20;100661.89;1864149;76;22717;-68
2021/05/11 05:16:31;;;;;;;9.87;2.53;;;;;;;22.39;22.51;100663.64;1851247;74;28402;-69
2021/05/11 05:19:06;;;;;;;10.60;3.25;;;;;;;22.58;21.76;100667.06;1806041;75;22814;-68
2021/05/11 05:21:53;;;;;;;5.85;2.50;;;;;;;22.69;22.45;100667.56;1763648;79;21693;-68
2021/05/11 05:24:33;;;;;;;6.92;2.42;;;;;;;22.89;22.46;100655.70;1871539;76;22995;-68
2021/05/11 05:27:24;;;;;;;4.70;2.20;;;;;;;23.00;22.16;100659.76;1821983;78;22688;-68
2021/05/11 05:30:07;;;;;;;4.97;2.20;;;;;;;23.08;20.31;100658.66;1879878;74;22533;-69
2021/05/11 05:32:43;;;;;;;4.00;1.90;;;;;;;22.94;20.33;100657.06;1816082;76;23371;-70
2021/05/11 05:35:33;;;;;;;7.50;2.52;;;;;;;22.88;21.00;100656.70;1783300;79;21232;-69
2021/05/11 05:43:54;;;;;;;13.48;2.37;;;;;;;23.51;20.23;100661.83;1853990;75;22590;-70
2021/05/11 05:46:44;;;;;;;6.08;2.00;;;;;;;23.55;19.59;100671.86;1829197;77;23410;-69
2021/05/11 05:52:15;;;;;;;12.75;1.90;;;;;;;23.54;20.16;100660.25;1825618;76;22736;-69
2021/05/11 05:54:46;;;;;;;4.42;2.22;;;;;;;23.74;19.83;100657.72;1820722;78;22778;-69
2021/05/11 05:57:21;;;;;;;5.92;2.10;;;;;;;23.82;18.87;100653.44;1880223;76;23309;-68
2021/05/11 05:59:56;;;;;;;8.80;2.30;;;;;;;23.77;19.99;100649.45;1837516;76;22743;-68
2021/05/11 06:02:42;;;;;;;4.95;2.37;;;;;;;23.82;18.93;100651.25;1819119;76;23081;-71
2021/05/11 06:05:23;;;;;;;19.30;2.40;;;;;;;23.87;19.03;100658.43;1773920;80;21120;-70
2021/05/11 06:08:05;;;;;;;6.22;2.33;;;;;;;24.01;19.64;100657.26;1787154;76;22805;-70
2021/05/11 06:10:41;;;;;;;9.95;3.08;;;;;;;24.09;20.63;100650.75;1831573;76;38703;-70
2021/05/11 06:13:27;;;;;;;3.17;2.10;;;;;;;24.36;19.59;100648.83;1805397;78;22692;-69
2021/05/11 06:18:55;;;;;;;5.58;2.20;;;;;;;24.60;19.13;100648.58;1834187;76;22765;-69
2021/05/11 06:21:30;;;;;;;4.17;2.02;;;;;;;24.64;19.71;100649.14;1887468;76;22557;-69
2021/05/11 06:24:07;;;;;;;3.70;2.33;;;;;;;24.91;19.28;100652.58;1839956;76;22783;-71
2021/05/11 06:26:54;;;;;;;6.08;2.25;;;;;;;25.04;19.08;100653.70;1783166;79;21170;-70
2021/05/11 06:29:39;;;;;;;10.32;2.17;;;;;;;25.15;19.22;100650.89;1787332;78;22346;-69
2021/05/11 06:32:27;;;;;;;9.50;2.22;;;;;;;25.07;19.44;100650.72;1858361;76;22635;-71
2021/05/11 06:35:16;;;;;;;7.85;2.10;;;;;;;24.99;19.20;100647.88;1823503;77;21193;-70
2021/05/11 06:38:08;;;;;;;6.62;2.37;;;;;;;24.89;18.33;100632.53;1801981;78;22869;-70
2021/05/11 06:40:50;;;;;;;6.03;2.20;;;;;;;24.82;18.18;100634.05;1832986;77;23402;-69
2021/05/11 06:43:37;;;;;;;9.83;2.70;;;;;;;24.64;18.18;100643.75;1821052;78;21167;-70
2021/05/11 06:54:54;;;;;;;3.60;2.08;;;;;;;24.97;16.18;100633.69;1808131;78;22848;-70
2021/05/11 06:57:29;;;;;;;15.85;2.30;;;;;;;25.02;17.40;100623.34;1868809;74;22623;-69
2021/05/11 07:00:06;;;;;;;5.67;2.55;;;;;;;24.94;15.71;100626.73;1833612;76;22742;-70
2021/05/11 07:02:42;;;;;;;6.53;2.12;;;;;;;24.69;16.18;100622.69;1831485;76;22725;-72
2021/05/11 07:05:31;;;;;;;8.18;2.00;;;;;;;24.33;16.39;100632.96;1783318;79;21342;-72
2021/05/11 07:13:22;;;;;;;7.72;1.92;;;;;;;24.61;18.03;100625.19;1825999;76;22752;-71
2021/05/11 07:15:57;;;;;;;5.90;2.00;;;;;;;24.89;16.84;100612.80;1840319;78;22677;-69
2021/05/11 07:18:34;;;;;;;3.65;1.92;;;;;;;24.75;18.09;100603.27;1810004;78;22736;-73
2021/05/11 07:21:15;;;;;;;4.78;1.90;;;;;;;24.70;17.35;100605.02;1811725;76;22700;-71
2021/05/11 07:24:15;;;;;;;5.87;2.20;;;;;;;24.77;17.63;100603.14;1780520;79;22656;-68
2021/05/11 07:30:14;;;;;;;8.30;1.90;;;;;;;24.89;18.56;100592.13;1853132;76;22744;-71
2021/05/11 07:32:55;;;;;;;2.45;1.80;;;;;;;25.13;19.98;100585.00;1805327;76;22655;-70
2021/05/11 07:35:30;;;;;;;5.72;1.90;;;;;;;25.38;18.89;100569.30;1807191;76;22801;-71
2021/05/11 07:38:29;;;;;;;5.65;2.05;;;;;;;25.57;19.16;100561.70;1779317;79;21159;-70
2021/05/11 08:05:51;;;;;;;6.92;1.47;;;;;;;27.04;18.20;100576.91;1822059;77;21630;-69
2021/05/11 08:14:31;;;;;;;5.42;1.30;;;;;;;26.60;18.55;100570.00;1804076;76;22700;-69
2021/05/11 08:17:15;;;;;;;3.12;1.42;;;;;;;26.62;19.11;100565.27;1755504;80;21187;-72
2021/05/11 08:28:51;;;;;;;3.80;1.60;;;;;;;27.13;19.32;100555.72;1754721;78;22108;-69
2021/05/11 08:31:38;;;;;;;5.05;1.50;;;;;;;27.23;19.25;100548.41;1762549;79;21249;-69
2021/05/11 08:34:13;;;;;;;4.97;1.45;;;;;;;27.41;18.73;100546.53;1824411;76;22685;-71
2021/05/11 08:36:48;;;;;;;5.85;1.60;;;;;;;27.67;18.11;100538.96;1840075;75;22678;-69
2021/05/11 08:39:34;;;;;;;6.60;1.67;;;;;;;27.72;17.67;100542.55;1812205;77;21210;-70
2021/05/11 08:42:15;;;;;;;4.53;1.67;;;;;;;27.70;18.03;100538.66;1899607;74;22703;-69
2021/05/11 08:44:50;;;;;;;6.72;2.27;;;;;;;27.79;18.11;100536.36;1812883;77;22711;-70
2021/05/11 08:47:32;;;;;;;10.98;2.15;;;;;;;28.02;18.76;100531.77;1784887;77;23732;-74
2021/05/11 08:50:07;;;;;;;3.80;1.52;;;;;;;28.26;19.02;100518.05;1813950;78;22794;-71
2021/05/11 09:08:03;;;;;;;5.53;1.55;;;;;;;28.40;18.15;100495.75;1776104;80;21147;-70
2021/05/11 09:28:03;;;;;;;6.50;1.62;;;;;;;28.47;18.37;100469.73;1842461;75;22788;-73
2021/05/11 09:30:59;;;;;;;6.40;1.77;;;;;;;28.28;18.83;100474.89;1812917;79;21167;-73
2021/05/11 09:45:34;;;;;;;3.85;1.47;;;;;;;28.30;19.53;100454.39;1825526;75;56262;-72
2021/05/11 10:40:25;;;;;;;6.83;1.70;;;;;;;29.20;19.71;100405.81;1819745;77;27817;-73
2021/05/11 10:48:42;;;;;;;5.45;1.45;;;;;;;29.60;18.92;100391.81;1765543;78;21201;-74
2021/05/11 10:51:28;;;;;;;8.18;1.35;;;;;;;29.51;19.88;100386.91;1824841;77;22750;-72
2021/05/11 10:54:09;;;;;;;3.15;1.15;;;;;;;29.41;19.54;100384.40;1811786;77;22779;-71
2021/05/11 10:56:56;;;;;;;2.45;1.17;;;;;;;29.47;19.39;100382.84;1781942;79;21178;-73
2021/05/11 10:59:43;;;;;;;5.47;1.30;;;;;;;29.62;19.48;100382.98;1815968;76;23396;-72
2021/05/11 11:07:42;;;;;;;6.65;1.87;;;;;;;29.92;19.70;100362.89;1808793;77;22743;-72
2021/05/11 11:10:18;;;;;;;5.17;1.40;;;;;;;29.94;19.31;100373.06;1802247;78;38317;-71
2021/05/11 11:12:53;;;;;;;8.28;1.40;;;;;;;30.01;19.65;100371.33;1750052;79;22792;-73
2021/05/11 11:15:35;;;;;;;7.00;1.20;;;;;;;30.12;19.37;100362.78;1815058;76;22671;-73
2021/05/11 11:18:22;;;;;;;6.67;1.77;;;;;;;30.25;18.78;100360.34;1919265;73;22769;-72
2021/05/11 11:23:57;;;;;;;1.87;1.12;;;;;;;30.08;20.08;100358.73;1817683;75;22656;-75
2021/05/11 11:26:43;;;;;;;3.35;1.15;;;;;;;29.94;19.16;100347.27;1896854;74;23186;-72
2021/05/11 11:29:20;;;;;;;4.95;1.37;;;;;;;29.72;19.29;100341.58;1823397;76;22680;-74
2021/05/11 11:32:06;;;;;;;2.62;1.20;;;;;;;29.54;19.83;100351.80;1727891;81;21529;-72
2021/05/11 11:34:45;;;;;;;4.60;1.30;;;;;;;29.61;20.02;100341.45;1722663;79;23197;-72
2021/05/11 11:37:29;;;;;;;3.12;1.15;;;;;;;29.62;19.77;100337.70;1817290;76;22688;-71
2021/05/11 11:40:08;;;;;;;7.42;1.30;;;;;;;29.64;20.46;100329.39;1837717;77;22708;-72
2021/05/11 11:42:43;;;;;;;7.25;1.00;;;;;;;29.49;20.04;100321.99;1871458;76;22655;-71
2021/05/11 11:45:25;;;;;;;6.50;1.20;;;;;;;29.28;20.52;100329.84;1819364;76;27961;-71
2021/05/11 11:48:03;;;;;;;2.67;1.00;;;;;;;29.18;20.47;100328.69;1855656;75;23310;-71
2021/05/11 11:50:39;;;;;;;7.53;1.00;;;;;;;29.24;20.39;100320.35;1827464;77;22856;-72
2021/05/11 11:53:21;;;;;;;12.30;1.50;;;;;;;29.30;19.86;100316.95;1842047;75;23262;-72
2021/05/11 11:58:46;;;;;;;6.10;1.00;;;;;;;29.10;21.03;100310.22;1815785;77;21180;-71
2021/05/11 12:01:27;;;;;;;3.83;1.10;;;;;;;29.07;21.03;100308.19;1809113;76;22681;-71
2021/05/11 12:04:03;;;;;;;4.40;1.37;;;;;;;29.12;20.42;100310.90;1817631;77;23031;-72
2021/05/11 12:06:51;;;;;;;4.90;1.45;;;;;;;29.10;20.76;100310.22;1810291;78;21203;-71
2021/05/11 12:09:26;;;;;;;4.05;0.95;;;;;;;29.23;20.14;100307.83;1829764;75;23391;-70
2021/05/11 12:12:01;;;;;;;4.50;1.10;;;;;;;29.06;20.83;100305.13;1783544;79;22756;-71
2021/05/11 12:14:38;;;;;;;6.30;1.42;;;;;;;29.07;21.02;100306.83;1857410;75;22702;-71
2021/05/11 12:17:13;;;;;;;6.87;1.40;;;;;;;29.23;21.17;100311.89;1798998;76;27984;-73
2021/05/11 12:20:03;;;;;;;7.58;1.07;;;;;;;29.32;20.69;100305.94;1795093;79;21220;-72
2021/05/11 12:22:38;;;;;;;8.28;1.20;;;;;;;29.47;20.38;100300.97;1853178;75;22120;-72
2021/05/11 12:25:24;;;;;;;3.75;1.20;;;;;;;29.48;20.47;100301.29;1793165;78;22719;-73
2021/05/11 12:28:07;;;;;;;4.03;1.15;;;;;;;29.26;20.08;100297.97;1771114;79;21176;-72
2021/05/11 12:30:43;;;;;;;7.45;1.50;;;;;;;28.99;21.11;100293.28;1780867;77;22924;-74
2021/05/11 12:33:18;;;;;;;4.60;1.50;;;;;;;29.03;21.43;100282.92;1839878;76;22677;-74
2021/05/11 12:36:03;;;;;;;5.08;1.30;;;;;;;29.12;21.08;100285.14;1870625;76;22659;-75
2021/05/11 12:38:42;;;;;;;8.23;1.30;;;;;;;29.19;20.82;100284.78;1832597;76;22739;-74
2021/05/11 12:41:32;;;;;;;6.17;1.70;;;;;;;29.00;20.58;100273.27;1832179;76;23589;-73
2021/05/11 12:44:07;;;;;;;6.47;1.25;;;;;;;28.70;20.88;100270.78;1853844;75;22859;-70
2021/05/11 12:46:50;;;;;;;5.67;1.35;;;;;;;28.42;21.53;100270.27;1776352;76;23392;-73
2021/05/11 12:49:31;;;;;;;9.03;1.95;;;;;;;28.40;21.90;100265.53;1784297;78;22720;-71
2021/05/11 12:52:09;;;;;;;6.20;1.60;;;;;;;28.37;21.96;100263.17;1744197;79;28823;-72
2021/05/11 12:54:54;;;;;;;11.65;1.70;;;;;;;28.41;21.99;100259.08;1667921;83;21163;-72
2021/05/11 12:57:40;;;;;;;6.60;1.42;;;;;;;28.50;21.59;100259.45;1770930;78;22736;-73
2021/05/11 13:00:16;;;;;;;12.35;1.25;;;;;;;28.45;21.35;100255.02;1803786;76;22736;-72
2021/05/11 13:21:19;;;;;;;6.50;1.30;;;;;;;28.08;22.60;100240.13;1756695;80;21684;-71
2021/05/11 13:26:40;;;;;;;7.95;1.98;;;;;;;27.97;21.90;100235.87;1832274;76;22703;-72
2021/05/11 13:35:42;;;;;;;6.15;1.30;;;;;;;27.75;22.38;100247.32;1886850;76;22676;-72
2021/05/11 13:38:23;;;;;;;4.37;1.90;;;;;;;27.64;22.29;100239.51;1820693;76;22801;-73
2021/05/11 13:40:58;;;;;;;5.72;1.42;;;;;;;27.54;22.88;100240.50;1857630;76;22850;-72
2021/05/11 13:43:44;;;;;;;11.18;1.55;;;;;;;27.48;23.23;100238.95;1818686;77;21202;-74
2021/05/11 13:46:26;;;;;;;10.65;1.92;;;;;;;27.46;23.10;100234.20;1807910;76;21885;-73
2021/05/11 13:49:01;;;;;;;9.45;1.87;;;;;;;27.36;22.71;100229.78;1863484;76;22855;-72
2021/05/11 13:51:36;;;;;;;11.18;2.22;;;;;;;27.24;22.97;100235.14;1823294;76;22754;-71
2021/05/11 13:54:22;;;;;;;9.35;2.37;;;;;;;26.95;23.55;100241.71;1755181;80;22599;-71
2021/05/11 13:57:26;;;;;;;13.70;2.35;;;;;;;26.72;23.82;100241.40;1836573;77;23624;-74
2021/05/11 14:02:58;;;;;;;9.05;2.20;;;;;;;26.54;24.39;100240.09;1873492;76;22722;-73
2021/05/11 14:05:45;;;;;;;8.45;1.80;;;;;;;26.44;24.49;100243.87;1835359;77;21158;-72
2021/05/11 14:08:20;;;;;;;6.75;1.67;;;;;;;26.35;24.54;100232.16;1874164;76;23335;-73
2021/05/11 14:10:55;;;;;;;17.48;3.17;;;;;;;26.25;24.77;100232.73;1871990;76;22613;-73
2021/05/11 14:13:36;;;;;;;8.48;2.12;;;;;;;26.15;24.80;100237.70;1857391;76;22794;-70
2021/05/11 14:16:12;;;;;;;17.42;2.67;;;;;;;26.01;24.80;100230.67;1787650;78;22682;-80
2021/05/11 14:18:58;;;;;;;8.10;2.45;;;;;;;25.79;25.22;100234.15;1757732;79;21116;-73
2021/05/11 14:21:34;;;;;;;11.28;2.27;;;;;;;25.69;25.18;100228.80;1794492;76;22645;-74
2021/05/11 14:24:17;;;;;;;13.20;2.70;;;;;;;25.62;26.02;100234.45;1819257;76;22772;-73
2021/05/11 14:26:53;;;;;;;16.62;2.47;;;;;;;25.59;26.12;100234.77;1873064;76;22682;-74
2021/05/11 14:29:28;;;;;;;16.67;2.72;;;;;;;25.54;25.67;100234.38;1869339;75;22651;-73
2021/05/11 14:32:15;;;;;;;9.03;2.22;;;;;;;25.47;25.95;100233.28;1871827;75;21071;-73
2021/05/11 14:34:50;;;;;;;13.20;1.95;;;;;;;25.48;25.72;100225.53;1838893;77;23330;-72
2021/05/11 14:37:25;;;;;;;16.35;2.05;;;;;;;25.44;26.30;100226.83;1833117;76;22738;-74
2021/05/11 14:40:08;;;;;;;11.30;2.25;;;;;;;25.45;26.19;100220.45;1824209;76;22704;-75
2021/05/11 14:42:54;;;;;;;7.05;1.90;;;;;;;25.37;26.48;100214.95;1802288;79;22178;-74
2021/05/11 14:45:30;;;;;;;19.55;2.55;;;;;;;25.40;26.52;100209.25;1836072;75;23372;-77
2021/05/11 14:48:06;;;;;;;17.33;2.10;;;;;;;25.35;26.80;100208.35;1846368;76;27843;-75
2021/05/11 14:50:52;;;;;;;9.53;1.57;;;;;;;25.30;26.90;100210.15;1761175;80;21778;-77
2021/05/11 14:53:34;;;;;;;12.93;1.82;;;;;;;25.38;27.02;100208.58;1812154;76;22828;-77
2021/05/11 14:56:11;;;;;;;9.78;1.70;;;;;;;25.38;27.22;100209.42;1836683;75;22866;-77
2021/05/11 14:58:57;;;;;;;7.17;2.20;;;;;;;25.35;26.92;100206.16;1784113;80;21535;-76
2021/05/11 15:01:39;;;;;;;12.93;1.85;;;;;;;25.29;27.03;100203.08;1816993;76;22871;-75
2021/05/11 15:04:14;;;;;;;16.27;2.12;;;;;;;25.16;27.40;100201.19;1820116;78;23038;-76
2021/05/11 15:06:51;;;;;;;14.93;2.30;;;;;;;25.07;27.75;100196.19;1834277;76;22654;-75
2021/05/11 15:09:27;;;;;;;11.60;2.20;;;;;;;24.93;27.59;100195.34;1817001;76;28269;-77
2021/05/11 15:12:13;;;;;;;10.10;1.77;;;;;;;24.85;27.81;100204.67;1796245;79;21153;-77
2021/05/11 15:14:49;;;;;;;11.08;1.87;;;;;;;24.83;27.77;100199.42;1824877;76;22649;-77
2021/05/11 15:20:12;;;;;;;9.05;1.92;;;;;;;24.73;28.10;100197.23;1833138;76;23275;-77
2021/05/11 15:22:52;;;;;;;16.70;2.35;;;;;;;24.70;28.27;100193.50;1842183;75;28221;-75
2021/05/11 15:25:36;;;;;;;4.45;1.70;;;;;;;24.68;28.30;100187.41;1814387;77;21186;-76
2021/05/11 15:28:17;;;;;;;8.18;2.00;;;;;;;24.69;28.33;100187.78;1847072;75;22399;-76
2021/05/11 15:30:58;;;;;;;8.00;1.80;;;;;;;24.61;28.58;100186.30;1856280;76;22704;-75
2021/05/11 15:33:40;;;;;;;9.33;1.65;;;;;;;24.54;29.02;100185.19;1811539;76;22231;-75
2021/05/11 15:36:26;;;;;;;5.72;1.77;;;;;;;24.45;29.04;100179.64;1749132;82;21155;-76
2021/05/11 15:39:02;;;;;;;12.33;2.25;;;;;;;24.50;29.20;100179.23;1811150;77;23303;-76
2021/05/11 15:41:37;;;;;;;9.95;2.17;;;;;;;24.48;28.95;100182.09;1824908;75;22897;-77
2021/05/11 15:44:13;;;;;;;8.15;1.75;;;;;;;24.44;29.08;100179.30;1823377;77;23311;-79
2021/05/11 15:46:59;;;;;;;12.20;2.40;;;;;;;24.35;28.73;100186.06;1792486;78;21164;-78
2021/05/11 15:49:34;;;;;;;8.58;1.80;;;;;;;24.30;29.22;100186.49;1835126;76;22744;-77
2021/05/11 15:52:12;;;;;;;8.70;1.70;;;;;;;24.26;29.33;100180.53;1842651;74;23363;-77
2021/05/11 15:54:58;;;;;;;12.60;1.80;;;;;;;24.19;29.57;100179.91;1792854;77;21119;-78
2021/05/11 15:57:40;;;;;;;4.90;1.62;;;;;;;24.20;29.38;100180.25;1838435;78;22738;-77
2021/05/11 16:00:17;;;;;;;5.35;1.77;;;;;;;24.17;29.23;100172.48;1882786;75;22717;-78
2021/05/11 16:03:00;;;;;;;9.63;1.57;;;;;;;24.12;29.48;100172.07;1798565;78;23312;-75
2021/05/11 16:06:00;;;;;;;9.23;1.70;;;;;;;24.10;29.86;100178.92;1800192;79;22655;-77
2021/05/11 16:08:35;;;;;;;8.13;2.00;;;;;;;24.07;30.35;100172.50;1833208;76;27925;-77
2021/05/11 16:11:21;;;;;;;8.30;2.00;;;;;;;24.04;29.99;100173.63;1747482;82;21226;-77
2021/05/11 16:13:56;;;;;;;12.78;2.10;;;;;;;24.07;30.03;100169.30;1834502;76;22677;-76
2021/05/11 16:16:37;;;;;;;6.03;1.92;;;;;;;24.02;30.26;100170.73;1812842;75;22728;-75
2021/05/11 16:19:18;;;;;;;10.00;2.35;;;;;;;23.96;30.10;100162.72;1815024;76;22752;-80
2021/05/11 16:21:59;;;;;;;6.35;2.30;;;;;;;23.91;30.67;100170.38;1878776;76;22703;-75
2021/05/11 16:24:35;;;;;;;12.43;2.90;;;;;;;23.86;30.51;100169.96;1816490;76;22808;-76
2021/05/11 16:27:19;;;;;;;11.73;2.67;;;;;;;23.80;30.90;100167.83;1795716;76;28381;-76
2021/05/11 16:30:31;;;;;;;11.35;3.02;;;;;;;23.80;30.60;100165.14;1891476;74;22755;-76
2021/05/11 16:33:18;;;;;;;4.90;2.20;;;;;;;23.71;30.89;100171.33;1836648;76;21197;-76
2021/05/11 16:35:59;;;;;;;10.90;2.95;;;;;;;23.64;31.26;100173.22;1885312;76;22668;-75
2021/05/11 16:38:34;;;;;;;9.58;2.50;;;;;;;23.54;31.25;100172.87;1853934;74;22640;-76
2021/05/11 16:41:11;;;;;;;8.38;2.47;;;;;;;23.44;31.64;100175.52;1870115;74;27871;-70
2021/05/11 16:43:46;;;;;;;8.20;2.47;;;;;;;23.42;31.90;100168.09;1813128;76;22733;-69